DUMME EDCJ-EDVU
Flight info
| Callsign | DUMME |
|---|---|
| Flight time | N/A |
| Altitude | 6000 |
| Route | EDVU |
| Aircraft | C172/L-SFG/C |
Departure
| Time | 2026-04-30 06:22 |
|---|---|
| Airport | Chemnitz/Jahnsdorf Airfield (EDCJ) |
Arrival
| Time | N/A |
|---|---|
| Airport | Uelzen Airfield (EDVU) |
| Time | Latitude | Longitude | Altitude | Speed | Heading |
|---|---|---|---|---|---|
| 2026-04-30 06:17 | 50.74742 | 12.83251 | 1220 ft | 0 kts | 153° |
| 2026-04-30 06:20 | 50.74743 | 12.83269 | 1220 ft | 7 kts | 33° |
| 2026-04-30 06:20 | 50.74791 | 12.83369 | 1218 ft | 12 kts | 64° |
| 2026-04-30 06:20 | 50.74772 | 12.83445 | 1221 ft | 6 kts | 152° |
| 2026-04-30 06:20 | 50.74723 | 12.83483 | 1222 ft | 9 kts | 157° |
| 2026-04-30 06:21 | 50.74683 | 12.83534 | 1222 ft | 7 kts | 71° |
| 2026-04-30 06:21 | 50.74735 | 12.83714 | 1222 ft | 41 kts | 65° |
| 2026-04-30 06:21 | 50.74920 | 12.84320 | 1266 ft | 73 kts | 66° |
| 2026-04-30 06:21 | 50.75160 | 12.85060 | 1445 ft | 78 kts | 64° |
| 2026-04-30 06:22 | 50.75427 | 12.85880 | 1625 ft | 88 kts | 59° |
| 2026-04-30 06:22 | 50.75943 | 12.86282 | 1890 ft | 84 kts | 14° |
| 2026-04-30 06:22 | 50.76548 | 12.86208 | 2041 ft | 96 kts | 322° |
| 2026-04-30 06:22 | 50.77124 | 12.85610 | 2200 ft | 103 kts | 331° |
| 2026-04-30 06:23 | 50.77755 | 12.84980 | 2347 ft | 110 kts | 329° |
| 2026-04-30 06:23 | 50.78413 | 12.84318 | 2493 ft | 115 kts | 329° |
| 2026-04-30 06:23 | 50.79092 | 12.83629 | 2640 ft | 118 kts | 329° |
| 2026-04-30 06:23 | 50.79794 | 12.82914 | 2795 ft | 121 kts | 329° |
| 2026-04-30 06:24 | 50.80499 | 12.82196 | 2936 ft | 122 kts | 329° |
| 2026-04-30 06:24 | 50.81217 | 12.81465 | 3083 ft | 124 kts | 329° |
| 2026-04-30 06:24 | 50.81701 | 12.80974 | 3172 ft | 127 kts | 330° |
| 2026-04-30 06:24 | 50.82438 | 12.80219 | 3307 ft | 126 kts | 330° |
| 2026-04-30 06:25 | 50.83172 | 12.79472 | 3437 ft | 126 kts | 330° |
| 2026-04-30 06:25 | 50.83911 | 12.78719 | 3570 ft | 126 kts | 330° |
| 2026-04-30 06:25 | 50.84643 | 12.77967 | 3702 ft | 126 kts | 330° |
| 2026-04-30 06:25 | 50.85381 | 12.77218 | 3835 ft | 127 kts | 332° |
| 2026-04-30 06:26 | 50.86371 | 12.76208 | 4008 ft | 127 kts | 333° |
| 2026-04-30 06:26 | 50.86870 | 12.75700 | 4092 ft | 126 kts | 333° |
| 2026-04-30 06:26 | 50.87595 | 12.74954 | 4209 ft | 122 kts | 335° |
| 2026-04-30 06:26 | 50.88317 | 12.74219 | 4349 ft | 125 kts | 335° |
| 2026-04-30 06:27 | 50.89044 | 12.73476 | 4472 ft | 123 kts | 335° |
| 2026-04-30 06:27 | 50.89764 | 12.72741 | 4609 ft | 123 kts | 335° |
| 2026-04-30 06:27 | 50.90471 | 12.72021 | 4715 ft | 123 kts | 336° |
| 2026-04-30 06:27 | 50.91201 | 12.71272 | 4798 ft | 127 kts | 336° |
| 2026-04-30 06:28 | 50.91941 | 12.70514 | 4877 ft | 126 kts | 335° |
| 2026-04-30 06:28 | 50.92674 | 12.69762 | 4960 ft | 125 kts | 336° |
| 2026-04-30 06:28 | 50.93415 | 12.69003 | 5019 ft | 128 kts | 336° |
| 2026-04-30 06:28 | 50.94170 | 12.68228 | 5076 ft | 130 kts | 335° |
| 2026-04-30 06:29 | 50.94931 | 12.67448 | 5131 ft | 130 kts | 335° |
| 2026-04-30 06:29 | 50.95687 | 12.66671 | 5181 ft | 130 kts | 335° |
| 2026-04-30 06:29 | 50.96443 | 12.65895 | 5217 ft | 130 kts | 335° |
| 2026-04-30 06:29 | 50.97209 | 12.65107 | 5238 ft | 131 kts | 336° |
| 2026-04-30 06:30 | 50.97973 | 12.64322 | 5261 ft | 131 kts | 336° |
| 2026-04-30 06:30 | 50.98735 | 12.63539 | 5281 ft | 130 kts | 336° |
| 2026-04-30 06:30 | 50.99500 | 12.62753 | 5314 ft | 131 kts | 335° |
| 2026-04-30 06:30 | 51.00264 | 12.61965 | 5338 ft | 131 kts | 336° |
| 2026-04-30 06:31 | 51.01026 | 12.61181 | 5364 ft | 130 kts | 336° |
| 2026-04-30 06:31 | 51.01787 | 12.60397 | 5393 ft | 131 kts | 336° |
| 2026-04-30 06:31 | 51.02540 | 12.59621 | 5416 ft | 130 kts | 336° |
| 2026-04-30 06:31 | 51.03301 | 12.58838 | 5441 ft | 130 kts | 336° |
| 2026-04-30 06:32 | 51.04059 | 12.58056 | 5465 ft | 130 kts | 336° |
| 2026-04-30 06:32 | 51.04816 | 12.57276 | 5489 ft | 129 kts | 336° |
| 2026-04-30 06:32 | 51.05573 | 12.56493 | 5517 ft | 130 kts | 336° |
| 2026-04-30 06:32 | 51.06331 | 12.55712 | 5541 ft | 130 kts | 336° |
| 2026-04-30 06:33 | 51.07088 | 12.54929 | 5571 ft | 130 kts | 336° |
| 2026-04-30 06:33 | 51.07852 | 12.54143 | 5597 ft | 131 kts | 336° |
| 2026-04-30 06:33 | 51.08519 | 12.53127 | 5609 ft | 139 kts | 306° |
| 2026-04-30 06:33 | 51.08962 | 12.51762 | 5629 ft | 139 kts | 302° |
| 2026-04-30 06:34 | 51.09377 | 12.50371 | 5653 ft | 139 kts | 302° |
| 2026-04-30 06:34 | 51.09820 | 12.49007 | 5690 ft | 139 kts | 303° |
| 2026-04-30 06:34 | 51.10266 | 12.47627 | 5711 ft | 140 kts | 303° |
| 2026-04-30 06:34 | 51.10706 | 12.46246 | 5737 ft | 140 kts | 302° |
| 2026-04-30 06:35 | 51.11146 | 12.44865 | 5762 ft | 139 kts | 303° |
| 2026-04-30 06:35 | 51.11581 | 12.43508 | 5787 ft | 140 kts | 303° |
| 2026-04-30 06:35 | 51.12108 | 12.42253 | 5810 ft | 132 kts | 330° |
| 2026-04-30 06:35 | 51.12849 | 12.41415 | 5841 ft | 132 kts | 332° |
| 2026-04-30 06:36 | 51.13571 | 12.40476 | 5868 ft | 135 kts | 329° |
| 2026-04-30 06:36 | 51.14300 | 12.39508 | 5895 ft | 137 kts | 329° |
| 2026-04-30 06:36 | 51.15025 | 12.38536 | 5918 ft | 136 kts | 329° |
| 2026-04-30 06:36 | 51.15745 | 12.37569 | 5936 ft | 135 kts | 328° |
| 2026-04-30 06:37 | 51.16463 | 12.36598 | 5964 ft | 136 kts | 329° |
| 2026-04-30 06:37 | 51.17190 | 12.35627 | 5983 ft | 137 kts | 329° |
| 2026-04-30 06:37 | 51.17921 | 12.34648 | 5979 ft | 137 kts | 329° |
| 2026-04-30 06:37 | 51.18650 | 12.33668 | 5982 ft | 138 kts | 328° |
| 2026-04-30 06:38 | 51.19383 | 12.32681 | 5983 ft | 138 kts | 329° |
| 2026-04-30 06:38 | 51.20116 | 12.31696 | 5980 ft | 137 kts | 328° |
| 2026-04-30 06:38 | 51.20845 | 12.30714 | 5980 ft | 137 kts | 329° |
| 2026-04-30 06:38 | 51.21573 | 12.29733 | 5982 ft | 137 kts | 329° |
| 2026-04-30 06:39 | 51.22295 | 12.28761 | 5982 ft | 138 kts | 328° |
| 2026-04-30 06:39 | 51.23027 | 12.27774 | 5980 ft | 138 kts | 328° |
| 2026-04-30 06:39 | 51.23758 | 12.26789 | 5986 ft | 138 kts | 329° |
| 2026-04-30 06:39 | 51.24495 | 12.25796 | 5981 ft | 138 kts | 328° |
| 2026-04-30 06:40 | 51.25226 | 12.24807 | 5978 ft | 138 kts | 328° |
| 2026-04-30 06:40 | 51.25960 | 12.23817 | 5979 ft | 138 kts | 328° |
| 2026-04-30 06:40 | 51.26695 | 12.22823 | 5981 ft | 138 kts | 329° |
| 2026-04-30 06:40 | 51.27427 | 12.21833 | 5983 ft | 138 kts | 328° |
| 2026-04-30 06:41 | 51.28166 | 12.20835 | 5979 ft | 139 kts | 328° |
| 2026-04-30 06:41 | 51.28900 | 12.19841 | 5980 ft | 138 kts | 328° |
| 2026-04-30 06:41 | 51.29632 | 12.18849 | 5979 ft | 137 kts | 329° |
| 2026-04-30 06:41 | 51.30361 | 12.17864 | 5979 ft | 138 kts | 329° |
| 2026-04-30 06:42 | 51.31093 | 12.16870 | 5981 ft | 139 kts | 328° |
| 2026-04-30 06:42 | 51.31828 | 12.15876 | 5978 ft | 138 kts | 328° |
| 2026-04-30 06:42 | 51.32561 | 12.14884 | 5978 ft | 138 kts | 328° |
| 2026-04-30 06:42 | 51.33291 | 12.13892 | 5977 ft | 137 kts | 328° |
| 2026-04-30 06:43 | 51.34020 | 12.12902 | 5982 ft | 137 kts | 328° |
| 2026-04-30 06:43 | 51.34736 | 12.11930 | 5982 ft | 137 kts | 329° |
| 2026-04-30 06:43 | 51.35465 | 12.10941 | 5982 ft | 138 kts | 328° |
| 2026-04-30 06:43 | 51.36194 | 12.09951 | 5982 ft | 137 kts | 328° |
| 2026-04-30 06:44 | 51.36921 | 12.08962 | 5984 ft | 137 kts | 328° |
| 2026-04-30 06:44 | 51.37652 | 12.07969 | 5987 ft | 138 kts | 328° |
| 2026-04-30 06:44 | 51.38389 | 12.06968 | 5987 ft | 139 kts | 328° |
| 2026-04-30 06:44 | 51.39123 | 12.05968 | 5984 ft | 138 kts | 328° |
| 2026-04-30 06:45 | 51.39856 | 12.04969 | 5977 ft | 138 kts | 329° |
| 2026-04-30 06:45 | 51.40586 | 12.03974 | 5980 ft | 138 kts | 329° |
| 2026-04-30 06:45 | 51.41318 | 12.02977 | 5981 ft | 138 kts | 328° |
| 2026-04-30 06:45 | 51.42052 | 12.01976 | 5986 ft | 139 kts | 328° |
| 2026-04-30 06:46 | 51.42790 | 12.00972 | 5982 ft | 139 kts | 328° |
| 2026-04-30 06:46 | 51.43521 | 11.99972 | 5980 ft | 138 kts | 329° |
| 2026-04-30 06:46 | 51.44245 | 11.98984 | 5982 ft | 140 kts | 329° |
| 2026-04-30 06:46 | 51.44994 | 11.97961 | 5983 ft | 139 kts | 329° |
| 2026-04-30 06:47 | 51.45731 | 11.96955 | 5979 ft | 139 kts | 329° |
| 2026-04-30 06:47 | 51.46456 | 11.95961 | 5977 ft | 139 kts | 329° |
| 2026-04-30 06:47 | 51.47191 | 11.94959 | 5978 ft | 139 kts | 329° |
| 2026-04-30 06:47 | 51.47925 | 11.93954 | 5978 ft | 139 kts | 329° |
| 2026-04-30 06:48 | 51.48658 | 11.92949 | 5980 ft | 138 kts | 329° |
| 2026-04-30 06:48 | 51.49394 | 11.91944 | 5984 ft | 140 kts | 329° |
| 2026-04-30 06:48 | 51.50135 | 11.90929 | 5983 ft | 140 kts | 328° |
| 2026-04-30 06:48 | 51.50872 | 11.89918 | 5980 ft | 139 kts | 329° |
| 2026-04-30 06:49 | 51.51606 | 11.88911 | 5981 ft | 139 kts | 329° |
| 2026-04-30 06:49 | 51.52343 | 11.87901 | 5985 ft | 140 kts | 329° |
| 2026-04-30 06:49 | 51.53085 | 11.86883 | 5981 ft | 140 kts | 328° |
| 2026-04-30 06:49 | 51.53823 | 11.85868 | 5983 ft | 140 kts | 329° |
| 2026-04-30 06:50 | 51.54561 | 11.84854 | 5982 ft | 139 kts | 328° |
| 2026-04-30 06:50 | 51.55300 | 11.83840 | 5983 ft | 140 kts | 328° |
| 2026-04-30 06:50 | 51.56031 | 11.82836 | 5980 ft | 139 kts | 328° |
| 2026-04-30 06:50 | 51.56768 | 11.81822 | 5983 ft | 140 kts | 328° |
| 2026-04-30 06:51 | 51.57514 | 11.80798 | 5980 ft | 141 kts | 328° |
| 2026-04-30 06:51 | 51.58257 | 11.79774 | 5978 ft | 140 kts | 328° |
| 2026-04-30 06:51 | 51.59064 | 11.79097 | 5987 ft | 125 kts | 4° |
| 2026-04-30 06:51 | 51.59927 | 11.78927 | 5996 ft | 127 kts | 2° |
| 2026-04-30 06:52 | 51.60805 | 11.78656 | 5995 ft | 129 kts | 0° |
| 2026-04-30 06:52 | 51.61685 | 11.78365 | 5996 ft | 129 kts | 360° |
| 2026-04-30 06:52 | 51.62563 | 11.78070 | 5997 ft | 129 kts | 359° |
| 2026-04-30 06:52 | 51.63445 | 11.77771 | 5997 ft | 129 kts | 359° |
| 2026-04-30 06:53 | 51.64326 | 11.77470 | 5998 ft | 129 kts | 359° |
| 2026-04-30 06:53 | 51.65206 | 11.77169 | 5996 ft | 129 kts | 359° |
| 2026-04-30 06:53 | 51.66072 | 11.76876 | 5999 ft | 129 kts | 359° |
| 2026-04-30 06:53 | 51.66953 | 11.76573 | 5996 ft | 129 kts | 359° |
| 2026-04-30 06:54 | 51.67827 | 11.76275 | 5996 ft | 128 kts | 359° |
| 2026-04-30 06:54 | 51.68701 | 11.75977 | 5995 ft | 128 kts | 359° |
| 2026-04-30 06:54 | 51.69563 | 11.75819 | 5991 ft | 121 kts | 15° |
| 2026-04-30 06:54 | 51.70402 | 11.75909 | 5992 ft | 122 kts | 13° |
| 2026-04-30 06:55 | 51.71250 | 11.75951 | 5996 ft | 123 kts | 12° |
| 2026-04-30 06:55 | 51.72105 | 11.75979 | 5995 ft | 122 kts | 12° |
| 2026-04-30 06:55 | 51.72953 | 11.76004 | 5983 ft | 123 kts | 12° |
| 2026-04-30 06:55 | 51.73815 | 11.76029 | 5931 ft | 124 kts | 12° |
| 2026-04-30 06:56 | 51.74675 | 11.76051 | 5878 ft | 124 kts | 12° |
| 2026-04-30 06:56 | 51.75541 | 11.76074 | 5832 ft | 125 kts | 12° |
| 2026-04-30 06:56 | 51.76419 | 11.76097 | 5782 ft | 127 kts | 12° |
| 2026-04-30 06:56 | 51.77298 | 11.76120 | 5730 ft | 126 kts | 12° |
| 2026-04-30 06:57 | 51.78173 | 11.76141 | 5674 ft | 125 kts | 12° |
| 2026-04-30 06:57 | 51.79038 | 11.76163 | 5624 ft | 124 kts | 12° |
| 2026-04-30 06:57 | 51.79900 | 11.76186 | 5571 ft | 124 kts | 12° |
| 2026-04-30 06:57 | 51.80757 | 11.76208 | 5524 ft | 125 kts | 12° |
| 2026-04-30 06:58 | 51.81636 | 11.76232 | 5477 ft | 127 kts | 12° |
| 2026-04-30 06:58 | 51.82528 | 11.76257 | 5428 ft | 129 kts | 12° |
| 2026-04-30 06:58 | 51.83433 | 11.76283 | 5229 ft | 134 kts | 11° |
| 2026-04-30 06:58 | 51.84369 | 11.76307 | 5028 ft | 134 kts | 11° |
| 2026-04-30 06:59 | 51.85305 | 11.76328 | 4843 ft | 134 kts | 10° |
| 2026-04-30 06:59 | 51.86239 | 11.76355 | 4673 ft | 134 kts | 9° |
| 2026-04-30 06:59 | 51.87168 | 11.76377 | 4504 ft | 133 kts | 9° |
| 2026-04-30 06:59 | 51.88099 | 11.76397 | 4324 ft | 135 kts | 10° |
| 2026-04-30 07:00 | 51.89041 | 11.76429 | 4156 ft | 136 kts | 9° |
| 2026-04-30 07:00 | 51.89983 | 11.76452 | 4073 ft | 135 kts | 9° |
| 2026-04-30 07:00 | 51.90917 | 11.76476 | 4006 ft | 131 kts | 9° |
| 2026-04-30 07:00 | 51.91811 | 11.76495 | 4009 ft | 128 kts | 9° |
| 2026-04-30 07:01 | 51.92707 | 11.76521 | 4010 ft | 130 kts | 9° |
| 2026-04-30 07:01 | 51.93609 | 11.76543 | 3993 ft | 129 kts | 8° |
| 2026-04-30 07:01 | 51.94490 | 11.76564 | 3992 ft | 126 kts | 8° |
| 2026-04-30 07:01 | 51.95356 | 11.76587 | 3993 ft | 126 kts | 8° |
| 2026-04-30 07:02 | 51.96226 | 11.76609 | 4003 ft | 125 kts | 8° |
| 2026-04-30 07:02 | 51.97091 | 11.76631 | 4000 ft | 125 kts | 9° |
| 2026-04-30 07:02 | 51.97983 | 11.76659 | 3912 ft | 130 kts | 8° |
| 2026-04-30 07:02 | 51.98886 | 11.76681 | 3899 ft | 129 kts | 8° |
| 2026-04-30 07:03 | 51.99806 | 11.76709 | 3789 ft | 134 kts | 8° |
| 2026-04-30 07:03 | 52.00737 | 11.76736 | 3682 ft | 134 kts | 8° |
| 2026-04-30 07:03 | 52.01665 | 11.76760 | 3590 ft | 133 kts | 7° |
| 2026-04-30 07:03 | 52.02583 | 11.76783 | 3304 ft | 132 kts | 7° |
| 2026-04-30 07:04 | 52.03513 | 11.76812 | 2990 ft | 133 kts | 6° |
| 2026-04-30 07:04 | 52.04443 | 11.76837 | 2745 ft | 133 kts | 6° |
| 2026-04-30 07:04 | 52.05376 | 11.76851 | 2585 ft | 134 kts | 6° |
| 2026-04-30 07:04 | 52.06291 | 11.76775 | 2269 ft | 136 kts | 348° |
| 2026-04-30 07:05 | 52.07549 | 11.74655 | 1756 ft | 136 kts | 283° |
| 2026-04-30 07:05 | 52.07583 | 11.73175 | 1498 ft | 131 kts | 266° |
| 2026-04-30 07:05 | 52.07548 | 11.71702 | 1310 ft | 133 kts | 266° |
| 2026-04-30 07:06 | 52.07520 | 11.70251 | 1118 ft | 121 kts | 267° |
| 2026-04-30 07:06 | 52.07496 | 11.68940 | 950 ft | 109 kts | 267° |
| 2026-04-30 07:06 | 52.07472 | 11.67774 | 843 ft | 98 kts | 267° |
| 2026-04-30 07:06 | 52.07452 | 11.66734 | 712 ft | 84 kts | 267° |
| 2026-04-30 07:07 | 52.07429 | 11.65860 | 608 ft | 78 kts | 267° |
| 2026-04-30 07:07 | 52.07417 | 11.64983 | 490 ft | 77 kts | 268° |
| 2026-04-30 07:07 | 52.07396 | 11.64104 | 374 ft | 79 kts | 265° |
| 2026-04-30 07:07 | 52.07379 | 11.63225 | 266 ft | 71 kts | 266° |
| 2026-04-30 07:08 | 52.07365 | 11.62600 | 264 ft | 43 kts | 268° |
| 2026-04-30 07:08 | 52.07357 | 11.62200 | 271 ft | 30 kts | 268° |
| 2026-04-30 07:08 | 52.07352 | 11.61922 | 272 ft | 13 kts | 268° |
| 2026-04-30 07:08 | 52.07405 | 11.61877 | 271 ft | 11 kts | 20° |
| 2026-04-30 07:09 | 52.07481 | 11.61909 | 268 ft | 13 kts | 14° |
| 2026-04-30 07:09 | 52.07606 | 11.61966 | 261 ft | 21 kts | 14° |
| 2026-04-30 07:09 | 52.07683 | 11.62065 | 262 ft | 11 kts | 322° |
| 2026-04-30 07:09 | 52.07713 | 11.62016 | 263 ft | 5 kts | 25° |
| 2026-04-30 07:10 | 52.07717 | 11.62053 | 263 ft | 0 kts | 92° |